sensor_id;sensor_type;location;lat;lon;timestamp;temperature;humidity
11454;DHT22;5783;55.174;61.310;2023-04-03T00:01:36;20.80;33.20
11454;DHT22;5783;55.174;61.310;2023-04-03T00:04:06;20.80;33.20
11454;DHT22;5783;55.174;61.310;2023-04-03T00:06:35;20.90;33.30
11454;DHT22;5783;55.174;61.310;2023-04-03T00:09:04;20.90;33.30
11454;DHT22;5783;55.174;61.310;2023-04-03T00:11:33;20.90;33.30
11454;DHT22;5783;55.174;61.310;2023-04-03T00:14:02;20.80;33.20
11454;DHT22;5783;55.174;61.310;2023-04-03T00:16:31;20.80;33.30
11454;DHT22;5783;55.174;61.310;2023-04-03T00:19:00;20.80;33.20
11454;DHT22;5783;55.174;61.310;2023-04-03T00:21:30;20.80;33.30
11454;DHT22;5783;55.174;61.310;2023-04-03T00:23:59;20.80;33.40
11454;DHT22;5783;55.174;61.310;2023-04-03T00:26:28;20.80;33.50
11454;DHT22;5783;55.174;61.310;2023-04-03T00:28:57;20.80;33.50
11454;DHT22;5783;55.174;61.310;2023-04-03T00:31:26;20.80;33.40
11454;DHT22;5783;55.174;61.310;2023-04-03T00:33:56;20.80;33.50
11454;DHT22;5783;55.174;61.310;2023-04-03T00:36:25;20.70;33.50
11454;DHT22;5783;55.174;61.310;2023-04-03T00:38:54;20.70;33.60
11454;DHT22;5783;55.174;61.310;2023-04-03T00:41:23;20.70;33.70
11454;DHT22;5783;55.174;61.310;2023-04-03T00:43:52;20.70;33.50
11454;DHT22;5783;55.174;61.310;2023-04-03T00:46:21;20.70;33.50
11454;DHT22;5783;55.174;61.310;2023-04-03T00:48:50;20.70;33.50
11454;DHT22;5783;55.174;61.310;2023-04-03T00:51:39;20.70;33.50
11454;DHT22;5783;55.174;61.310;2023-04-03T00:54:09;20.70;33.40
11454;DHT22;5783;55.174;61.310;2023-04-03T00:56:38;20.60;33.50
11454;DHT22;5783;55.174;61.310;2023-04-03T00:59:30;20.60;33.60
11454;DHT22;5783;55.174;61.310;2023-04-03T01:01:59;20.60;33.60
11454;DHT22;5783;55.174;61.310;2023-04-03T01:07:21;20.50;33.70
11454;DHT22;5783;55.174;61.310;2023-04-03T01:09:53;20.50;33.80
11454;DHT22;5783;55.174;61.310;2023-04-03T01:18:05;20.60;33.20
11454;DHT22;5783;55.174;61.310;2023-04-03T01:26:33;20.50;33.90
11454;DHT22;5783;55.174;61.310;2023-04-03T01:29:03;20.50;33.90
11454;DHT22;5783;55.174;61.310;2023-04-03T01:34:23;20.50;33.90
11454;DHT22;5783;55.174;61.310;2023-04-03T01:36:53;20.50;33.90
11454;DHT22;5783;55.174;61.310;2023-04-03T01:39:22;20.40;33.80
11454;DHT22;5783;55.174;61.310;2023-04-03T01:41:52;20.40;33.80
11454;DHT22;5783;55.174;61.310;2023-04-03T01:44:21;20.40;33.80
11454;DHT22;5783;55.174;61.310;2023-04-03T01:46:50;20.40;33.80
11454;DHT22;5783;55.174;61.310;2023-04-03T01:49:20;20.50;33.80
11454;DHT22;5783;55.174;61.310;2023-04-03T01:51:49;20.50;33.80
11454;DHT22;5783;55.174;61.310;2023-04-03T01:54:18;20.50;33.80
11454;DHT22;5783;55.174;61.310;2023-04-03T01:56:47;20.50;33.90
11454;DHT22;5783;55.174;61.310;2023-04-03T01:59:16;20.50;33.90
11454;DHT22;5783;55.174;61.310;2023-04-03T02:01:45;20.40;34.00
11454;DHT22;5783;55.174;61.310;2023-04-03T02:04:15;20.40;34.10
11454;DHT22;5783;55.174;61.310;2023-04-03T02:06:44;20.40;34.10
11454;DHT22;5783;55.174;61.310;2023-04-03T02:09:13;20.40;34.00
11454;DHT22;5783;55.174;61.310;2023-04-03T02:11:42;20.40;34.00
11454;DHT22;5783;55.174;61.310;2023-04-03T02:14:11;20.40;34.10
11454;DHT22;5783;55.174;61.310;2023-04-03T02:16:42;20.40;34.10
11454;DHT22;5783;55.174;61.310;2023-04-03T02:19:11;20.40;33.90
11454;DHT22;5783;55.174;61.310;2023-04-03T02:21:41;20.40;34.00
11454;DHT22;5783;55.174;61.310;2023-04-03T02:24:11;20.40;33.90
11454;DHT22;5783;55.174;61.310;2023-04-03T02:26:40;20.40;33.90
11454;DHT22;5783;55.174;61.310;2023-04-03T02:29:09;20.40;33.90
11454;DHT22;5783;55.174;61.310;2023-04-03T02:31:38;20.40;33.90
11454;DHT22;5783;55.174;61.310;2023-04-03T02:34:07;20.40;33.90
11454;DHT22;5783;55.174;61.310;2023-04-03T02:36:36;20.40;33.80
11454;DHT22;5783;55.174;61.310;2023-04-03T02:39:05;20.40;33.80
11454;DHT22;5783;55.174;61.310;2023-04-03T02:41:35;20.40;33.70
11454;DHT22;5783;55.174;61.310;2023-04-03T02:44:06;20.50;33.80
11454;DHT22;5783;55.174;61.310;2023-04-03T02:46:35;20.40;33.70
11454;DHT22;5783;55.174;61.310;2023-04-03T02:49:04;20.40;33.70
11454;DHT22;5783;55.174;61.310;2023-04-03T02:51:33;20.40;33.70
11454;DHT22;5783;55.174;61.310;2023-04-03T02:54:03;20.50;33.70
11454;DHT22;5783;55.174;61.310;2023-04-03T02:56:32;20.50;33.70
11454;DHT22;5783;55.174;61.310;2023-04-03T02:59:01;20.50;33.60
11454;DHT22;5783;55.174;61.310;2023-04-03T03:01:30;20.50;33.60
11454;DHT22;5783;55.174;61.310;2023-04-03T03:04:00;20.50;33.60
11454;DHT22;5783;55.174;61.310;2023-04-03T03:06:29;20.60;33.70
11454;DHT22;5783;55.174;61.310;2023-04-03T03:08:59;20.60;33.70
11454;DHT22;5783;55.174;61.310;2023-04-03T03:11:28;20.60;33.80
11454;DHT22;5783;55.174;61.310;2023-04-03T03:13:57;20.60;33.80
11454;DHT22;5783;55.174;61.310;2023-04-03T03:16:26;20.60;33.70
11454;DHT22;5783;55.174;61.310;2023-04-03T03:18:55;20.60;33.80
11454;DHT22;5783;55.174;61.310;2023-04-03T03:21:24;20.60;33.80
11454;DHT22;5783;55.174;61.310;2023-04-03T03:23:53;20.60;33.80
11454;DHT22;5783;55.174;61.310;2023-04-03T03:26:23;20.60;33.90
11454;DHT22;5783;55.174;61.310;2023-04-03T03:28:52;20.70;33.80
11454;DHT22;5783;55.174;61.310;2023-04-03T03:31:21;20.70;33.60
11454;DHT22;5783;55.174;61.310;2023-04-03T03:33:50;20.70;33.60
11454;DHT22;5783;55.174;61.310;2023-04-03T03:36:19;20.70;33.50
11454;DHT22;5783;55.174;61.310;2023-04-03T03:38:48;20.70;33.50
11454;DHT22;5783;55.174;61.310;2023-04-03T03:41:17;20.80;33.40
11454;DHT22;5783;55.174;61.310;2023-04-03T03:43:47;20.80;33.40
11454;DHT22;5783;55.174;61.310;2023-04-03T03:46:16;20.80;33.40
11454;DHT22;5783;55.174;61.310;2023-04-03T03:48:45;20.80;33.40
11454;DHT22;5783;55.174;61.310;2023-04-03T03:51:14;20.80;33.50
11454;DHT22;5783;55.174;61.310;2023-04-03T03:53:43;20.80;33.30
11454;DHT22;5783;55.174;61.310;2023-04-03T03:56:12;20.80;33.40
11454;DHT22;5783;55.174;61.310;2023-04-03T03:58:42;20.90;33.50
11454;DHT22;5783;55.174;61.310;2023-04-03T04:01:11;20.90;33.30
11454;DHT22;5783;55.174;61.310;2023-04-03T04:03:40;20.90;33.20
11454;DHT22;5783;55.174;61.310;2023-04-03T04:06:09;20.90;33.30
11454;DHT22;5783;55.174;61.310;2023-04-03T04:08:38;20.90;33.30
11454;DHT22;5783;55.174;61.310;2023-04-03T04:11:08;21.00;33.30
11454;DHT22;5783;55.174;61.310;2023-04-03T04:13:38;20.90;33.40
11454;DHT22;5783;55.174;61.310;2023-04-03T04:16:07;21.00;33.30
11454;DHT22;5783;55.174;61.310;2023-04-03T04:18:36;21.00;33.20
11454;DHT22;5783;55.174;61.310;2023-04-03T04:21:06;21.00;33.10
11454;DHT22;5783;55.174;61.310;2023-04-03T04:23:35;21.10;33.30
11454;DHT22;5783;55.174;61.310;2023-04-03T04:26:04;21.10;33.20
11454;DHT22;5783;55.174;61.310;2023-04-03T04:28:33;21.10;33.40
11454;DHT22;5783;55.174;61.310;2023-04-03T04:31:02;21.10;33.30
11454;DHT22;5783;55.174;61.310;2023-04-03T04:33:31;21.10;33.30
11454;DHT22;5783;55.174;61.310;2023-04-03T04:36:01;21.20;33.20
11454;DHT22;5783;55.174;61.310;2023-04-03T04:38:30;21.30;33.40
11454;DHT22;5783;55.174;61.310;2023-04-03T04:40:59;21.40;32.30
11454;DHT22;5783;55.174;61.310;2023-04-03T04:43:28;21.50;32.00
11454;DHT22;5783;55.174;61.310;2023-04-03T04:46:17;21.70;31.90
11454;DHT22;5783;55.174;61.310;2023-04-03T04:48:47;21.70;31.80
11454;DHT22;5783;55.174;61.310;2023-04-03T04:51:16;21.70;31.80
11454;DHT22;5783;55.174;61.310;2023-04-03T04:53:45;21.70;31.60
11454;DHT22;5783;55.174;61.310;2023-04-03T04:56:14;21.70;31.70
11454;DHT22;5783;55.174;61.310;2023-04-03T04:58:43;21.70;31.60
11454;DHT22;5783;55.174;61.310;2023-04-03T05:01:13;21.70;31.80
11454;DHT22;5783;55.174;61.310;2023-04-03T05:03:42;21.70;31.90
11454;DHT22;5783;55.174;61.310;2023-04-03T05:06:11;21.90;31.90
11454;DHT22;5783;55.174;61.310;2023-04-03T05:08:40;22.00;32.20
11454;DHT22;5783;55.174;61.310;2023-04-03T05:11:09;22.30;31.20
11454;DHT22;5783;55.174;61.310;2023-04-03T05:13:38;22.50;30.50
11454;DHT22;5783;55.174;61.310;2023-04-03T05:16:08;22.70;30.00
11454;DHT22;5783;55.174;61.310;2023-04-03T05:18:37;22.90;30.00
11454;DHT22;5783;55.174;61.310;2023-04-03T05:21:07;23.00;29.60
11454;DHT22;5783;55.174;61.310;2023-04-03T05:23:36;23.10;29.20
11454;DHT22;5783;55.174;61.310;2023-04-03T05:26:05;23.20;29.30
11454;DHT22;5783;55.174;61.310;2023-04-03T05:28:34;23.20;29.00
11454;DHT22;5783;55.174;61.310;2023-04-03T05:31:04;23.30;37.40
11454;DHT22;5783;55.174;61.310;2023-04-03T05:33:33;23.30;50.40
11454;DHT22;5783;55.174;61.310;2023-04-03T05:36:04;23.30;49.80
11454;DHT22;5783;55.174;61.310;2023-04-03T05:38:34;23.30;29.60
11454;DHT22;5783;55.174;61.310;2023-04-03T05:41:03;23.30;32.80
11454;DHT22;5783;55.174;61.310;2023-04-03T05:43:33;23.30;28.80
11454;DHT22;5783;55.174;61.310;2023-04-03T05:46:03;23.30;29.00
11454;DHT22;5783;55.174;61.310;2023-04-03T05:48:33;23.30;28.70
11454;DHT22;5783;55.174;61.310;2023-04-03T05:51:04;23.30;28.40
11454;DHT22;5783;55.174;61.310;2023-04-03T05:53:35;23.30;28.30
11454;DHT22;5783;55.174;61.310;2023-04-03T05:56:05;23.30;28.50
11454;DHT22;5783;55.174;61.310;2023-04-03T05:58:34;23.30;28.40
11454;DHT22;5783;55.174;61.310;2023-04-03T06:01:03;23.30;28.40
11454;DHT22;5783;55.174;61.310;2023-04-03T06:03:33;23.30;28.50
11454;DHT22;5783;55.174;61.310;2023-04-03T06:06:03;23.30;28.50
11454;DHT22;5783;55.174;61.310;2023-04-03T06:08:34;23.30;28.30
11454;DHT22;5783;55.174;61.310;2023-04-03T06:11:05;23.30;28.30
11454;DHT22;5783;55.174;61.310;2023-04-03T06:13:36;23.30;28.30
11454;DHT22;5783;55.174;61.310;2023-04-03T06:16:06;23.30;28.40
11454;DHT22;5783;55.174;61.310;2023-04-03T06:18:36;23.30;28.80
11454;DHT22;5783;55.174;61.310;2023-04-03T06:21:06;23.30;28.50
11454;DHT22;5783;55.174;61.310;2023-04-03T06:23:35;23.30;28.50
11454;DHT22;5783;55.174;61.310;2023-04-03T06:28:37;23.30;28.70
11454;DHT22;5783;55.174;61.310;2023-04-03T06:31:06;23.40;28.40
11454;DHT22;5783;55.174;61.310;2023-04-03T06:33:36;23.40;28.40
11454;DHT22;5783;55.174;61.310;2023-04-03T06:36:06;23.50;29.50
11454;DHT22;5783;55.174;61.310;2023-04-03T06:38:35;23.50;42.90
11454;DHT22;5783;55.174;61.310;2023-04-03T06:41:05;23.60;28.20
11454;DHT22;5783;55.174;61.310;2023-04-03T06:43:34;23.60;28.00
11454;DHT22;5783;55.174;61.310;2023-04-03T06:46:03;23.60;27.90
11454;DHT22;5783;55.174;61.310;2023-04-03T06:48:33;23.50;28.00
11454;DHT22;5783;55.174;61.310;2023-04-03T06:51:02;23.50;28.00
11454;DHT22;5783;55.174;61.310;2023-04-03T06:53:32;23.50;28.10
11454;DHT22;5783;55.174;61.310;2023-04-03T06:56:01;23.50;27.70
11454;DHT22;5783;55.174;61.310;2023-04-03T06:58:30;23.60;27.70
11454;DHT22;5783;55.174;61.310;2023-04-03T07:01:00;23.30;28.30
11454;DHT22;5783;55.174;61.310;2023-04-03T07:03:29;23.60;36.90
11454;DHT22;5783;55.174;61.310;2023-04-03T07:05:58;23.60;27.50
11454;DHT22;5783;55.174;61.310;2023-04-03T07:08:27;23.60;27.50
11454;DHT22;5783;55.174;61.310;2023-04-03T07:10:56;23.60;27.40
11454;DHT22;5783;55.174;61.310;2023-04-03T07:13:26;23.60;27.50
11454;DHT22;5783;55.174;61.310;2023-04-03T07:15:55;23.70;27.40
11454;DHT22;5783;55.174;61.310;2023-04-03T07:18:24;23.70;27.20
11454;DHT22;5783;55.174;61.310;2023-04-03T07:20:54;23.70;27.20
11454;DHT22;5783;55.174;61.310;2023-04-03T07:23:23;23.70;27.10
11454;DHT22;5783;55.174;61.310;2023-04-03T07:25:53;23.80;26.80
11454;DHT22;5783;55.174;61.310;2023-04-03T07:28:23;23.70;26.70
11454;DHT22;5783;55.174;61.310;2023-04-03T07:31:25;23.80;26.70
11454;DHT22;5783;55.174;61.310;2023-04-03T07:33:24;23.80;26.50
11454;DHT22;5783;55.174;61.310;2023-04-03T07:35:53;23.80;27.20
11454;DHT22;5783;55.174;61.310;2023-04-03T07:38:22;23.80;26.30
11454;DHT22;5783;55.174;61.310;2023-04-03T07:40:52;23.80;26.40
11454;DHT22;5783;55.174;61.310;2023-04-03T07:43:22;23.80;26.30
11454;DHT22;5783;55.174;61.310;2023-04-03T07:45:51;23.80;26.30
11454;DHT22;5783;55.174;61.310;2023-04-03T07:48:23;23.90;26.20
11454;DHT22;5783;55.174;61.310;2023-04-03T07:50:53;23.90;26.10
11454;DHT22;5783;55.174;61.310;2023-04-03T07:53:23;23.90;36.00
11454;DHT22;5783;55.174;61.310;2023-04-03T07:55:52;24.00;26.60
11454;DHT22;5783;55.174;61.310;2023-04-03T07:58:22;24.00;26.20
11454;DHT22;5783;55.174;61.310;2023-04-03T08:00:52;23.60;28.30
11454;DHT22;5783;55.174;61.310;2023-04-03T08:03:21;24.10;26.10
11454;DHT22;5783;55.174;61.310;2023-04-03T08:05:51;24.10;40.10
11454;DHT22;5783;55.174;61.310;2023-04-03T08:08:22;24.10;26.80
11454;DHT22;5783;55.174;61.310;2023-04-03T08:10:52;24.20;26.00
11454;DHT22;5783;55.174;61.310;2023-04-03T08:13:22;24.20;25.80
11454;DHT22;5783;55.174;61.310;2023-04-03T08:15:52;24.20;28.20
11454;DHT22;5783;55.174;61.310;2023-04-03T08:18:23;24.20;28.20
11454;DHT22;5783;55.174;61.310;2023-04-03T08:20:53;24.30;33.30
11454;DHT22;5783;55.174;61.310;2023-04-03T08:23:22;24.20;30.80
11454;DHT22;5783;55.174;61.310;2023-04-03T08:25:52;24.30;26.30
11454;DHT22;5783;55.174;61.310;2023-04-03T08:28:21;24.30;25.50
11454;DHT22;5783;55.174;61.310;2023-04-03T08:30:50;24.30;25.70
11454;DHT22;5783;55.174;61.310;2023-04-03T08:33:19;24.30;25.80
11454;DHT22;5783;55.174;61.310;2023-04-03T08:35:48;24.30;26.00
11454;DHT22;5783;55.174;61.310;2023-04-03T08:38:17;24.40;25.70
11454;DHT22;5783;55.174;61.310;2023-04-03T08:40:47;24.40;25.50
11454;DHT22;5783;55.174;61.310;2023-04-03T08:46:30;24.50;25.30
11454;DHT22;5783;55.174;61.310;2023-04-03T08:48:58;24.40;25.30
11454;DHT22;5783;55.174;61.310;2023-04-03T08:51:29;24.40;25.30
11454;DHT22;5783;55.174;61.310;2023-04-03T08:56:50;24.50;25.70
11454;DHT22;5783;55.174;61.310;2023-04-03T08:59:52;24.50;25.30
11454;DHT22;5783;55.174;61.310;2023-04-03T09:01:53;24.60;25.30
11454;DHT22;5783;55.174;61.310;2023-04-03T09:04:22;24.60;25.60
11454;DHT22;5783;55.174;61.310;2023-04-03T09:06:56;24.60;25.30
11454;DHT22;5783;55.174;61.310;2023-04-03T09:09:45;24.60;25.00
11454;DHT22;5783;55.174;61.310;2023-04-03T09:23:58;24.80;33.40
11454;DHT22;5783;55.174;61.310;2023-04-03T09:29:39;24.80;24.00
11454;DHT22;5783;55.174;61.310;2023-04-03T09:32:31;24.80;23.50
11454;DHT22;5783;55.174;61.310;2023-04-03T09:35:03;24.80;23.40
11454;DHT22;5783;55.174;61.310;2023-04-03T09:37:54;24.80;23.20
11454;DHT22;5783;55.174;61.310;2023-04-03T09:43:33;24.80;23.20
11454;DHT22;5783;55.174;61.310;2023-04-03T09:49:13;24.80;23.10
11454;DHT22;5783;55.174;61.310;2023-04-03T09:51:42;24.80;23.00
11454;DHT22;5783;55.174;61.310;2023-04-03T09:57:23;24.90;23.50
11454;DHT22;5783;55.174;61.310;2023-04-03T10:03:03;24.90;23.50
11454;DHT22;5783;55.174;61.310;2023-04-03T10:08:27;24.90;23.60
11454;DHT22;5783;55.174;61.310;2023-04-03T10:11:17;25.00;23.50
11454;DHT22;5783;55.174;61.310;2023-04-03T10:14:10;25.00;23.50
11454;DHT22;5783;55.174;61.310;2023-04-03T10:16:40;25.10;23.30
11454;DHT22;5783;55.174;61.310;2023-04-03T10:43:45;25.40;22.50
11454;DHT22;5783;55.174;61.310;2023-04-03T10:57:16;25.40;22.10
11454;DHT22;5783;55.174;61.310;2023-04-03T11:02:58;25.50;28.20
11454;DHT22;5783;55.174;61.310;2023-04-03T11:05:48;25.50;34.90
11454;DHT22;5783;55.174;61.310;2023-04-03T11:08:38;25.50;43.70
11454;DHT22;5783;55.174;61.310;2023-04-03T11:11:29;25.50;24.30
11454;DHT22;5783;55.174;61.310;2023-04-03T11:17:30;25.50;22.10
11454;DHT22;5783;55.174;61.310;2023-04-03T11:20:01;25.50;22.10
11454;DHT22;5783;55.174;61.310;2023-04-03T11:22:35;25.50;22.20
11454;DHT22;5783;55.174;61.310;2023-04-03T11:27:58;25.50;22.00
11454;DHT22;5783;55.174;61.310;2023-04-03T11:36:29;25.50;21.90
11454;DHT22;5783;55.174;61.310;2023-04-03T11:42:30;25.60;22.20
11454;DHT22;5783;55.174;61.310;2023-04-03T11:51:00;25.70;21.80
11454;DHT22;5783;55.174;61.310;2023-04-03T11:53:49;25.70;21.70
11454;DHT22;5783;55.174;61.310;2023-04-03T11:56:38;25.70;21.50
11454;DHT22;5783;55.174;61.310;2023-04-03T11:59:27;25.70;21.70
11454;DHT22;5783;55.174;61.310;2023-04-03T12:01:58;25.70;21.80
11454;DHT22;5783;55.174;61.310;2023-04-03T12:04:27;25.70;22.30
11454;DHT22;5783;55.174;61.310;2023-04-03T12:14:53;25.90;21.50
11454;DHT22;5783;55.174;61.310;2023-04-03T12:17:26;25.90;21.60
11454;DHT22;5783;55.174;61.310;2023-04-03T12:19:56;25.90;22.70
11454;DHT22;5783;55.174;61.310;2023-04-03T12:22:25;25.90;21.80
11454;DHT22;5783;55.174;61.310;2023-04-03T12:24:55;25.90;21.50
11454;DHT22;5783;55.174;61.310;2023-04-03T12:27:43;25.80;21.50
11454;DHT22;5783;55.174;61.310;2023-04-03T12:45:09;25.80;23.00
11454;DHT22;5783;55.174;61.310;2023-04-03T12:47:35;25.80;22.20
11454;DHT22;5783;55.174;61.310;2023-04-03T12:53:18;25.80;21.80
11454;DHT22;5783;55.174;61.310;2023-04-03T12:55:47;25.70;21.60
11454;DHT22;5783;55.174;61.310;2023-04-03T13:01:27;25.60;21.40
11454;DHT22;5783;55.174;61.310;2023-04-03T13:03:57;25.60;21.40
11454;DHT22;5783;55.174;61.310;2023-04-03T13:09:37;25.50;22.50
11454;DHT22;5783;55.174;61.310;2023-04-03T13:12:25;25.50;22.70
11454;DHT22;5783;55.174;61.310;2023-04-03T13:14:58;25.50;22.40
11454;DHT22;5783;55.174;61.310;2023-04-03T13:17:28;25.50;22.00
11454;DHT22;5783;55.174;61.310;2023-04-03T13:25:41;25.50;21.50
11454;DHT22;5783;55.174;61.310;2023-04-03T13:28:31;25.50;21.50
11454;DHT22;5783;55.174;61.310;2023-04-03T13:34:29;25.40;21.60
11454;DHT22;5783;55.174;61.310;2023-04-03T13:37:01;25.40;21.30
11454;DHT22;5783;55.174;61.310;2023-04-03T13:39:33;25.40;21.10
11454;DHT22;5783;55.174;61.310;2023-04-03T13:42:24;25.30;20.80
11454;DHT22;5783;55.174;61.310;2023-04-03T13:56:35;25.20;21.10
11454;DHT22;5783;55.174;61.310;2023-04-03T14:05:23;25.20;20.90
11454;DHT22;5783;55.174;61.310;2023-04-03T14:07:21;25.10;20.90
11454;DHT22;5783;55.174;61.310;2023-04-03T14:09:51;25.10;21.00
11454;DHT22;5783;55.174;61.310;2023-04-03T14:12:40;25.10;20.90
11454;DHT22;5783;55.174;61.310;2023-04-03T14:15:30;25.10;20.90
11454;DHT22;5783;55.174;61.310;2023-04-03T14:18:00;25.00;21.00
11454;DHT22;5783;55.174;61.310;2023-04-03T14:20:29;25.00;21.00
11454;DHT22;5783;55.174;61.310;2023-04-03T14:22:58;25.00;21.00
11454;DHT22;5783;55.174;61.310;2023-04-03T14:25:27;24.90;20.90
11454;DHT22;5783;55.174;61.310;2023-04-03T14:27:56;24.90;20.80
11454;DHT22;5783;55.174;61.310;2023-04-03T14:30:46;24.90;20.60
11454;DHT22;5783;55.174;61.310;2023-04-03T14:33:19;24.80;20.50
11454;DHT22;5783;55.174;61.310;2023-04-03T14:35:49;24.70;20.40
11454;DHT22;5783;55.174;61.310;2023-04-03T14:44:00;24.60;20.70
11454;DHT22;5783;55.174;61.310;2023-04-03T14:49:21;24.50;20.60
11454;DHT22;5783;55.174;61.310;2023-04-03T14:51:50;24.40;21.00
11454;DHT22;5783;55.174;61.310;2023-04-03T14:54:22;24.40;21.10
11454;DHT22;5783;55.174;61.310;2023-04-03T14:57:13;24.40;21.40
11454;DHT22;5783;55.174;61.310;2023-04-03T15:02:35;24.30;22.30
11454;DHT22;5783;55.174;61.310;2023-04-03T15:05:07;24.20;22.80
11454;DHT22;5783;55.174;61.310;2023-04-03T15:10:29;24.00;23.70
11454;DHT22;5783;55.174;61.310;2023-04-03T15:12:59;23.90;24.60
11454;DHT22;5783;55.174;61.310;2023-04-03T15:15:31;23.80;24.90
11454;DHT22;5783;55.174;61.310;2023-04-03T15:18:02;23.70;25.20
11454;DHT22;5783;55.174;61.310;2023-04-03T15:20:31;23.60;25.90
11454;DHT22;5783;55.174;61.310;2023-04-03T15:23:01;23.60;25.50
11454;DHT22;5783;55.174;61.310;2023-04-03T15:25:32;23.50;25.70
11454;DHT22;5783;55.174;61.310;2023-04-03T15:28:01;23.50;25.70
11454;DHT22;5783;55.174;61.310;2023-04-03T15:30:30;23.50;25.90
11454;DHT22;5783;55.174;61.310;2023-04-03T15:33:00;23.40;26.40
11454;DHT22;5783;55.174;61.310;2023-04-03T15:35:29;23.40;31.20
11454;DHT22;5783;55.174;61.310;2023-04-03T15:37:58;23.40;26.30
11454;DHT22;5783;55.174;61.310;2023-04-03T15:40:27;23.40;30.80
11454;DHT22;5783;55.174;61.310;2023-04-03T15:42:56;23.30;31.00
11454;DHT22;5783;55.174;61.310;2023-04-03T15:48:17;23.30;26.30
11454;DHT22;5783;55.174;61.310;2023-04-03T15:50:46;23.20;26.40
11454;DHT22;5783;55.174;61.310;2023-04-03T15:53:16;23.20;26.80
11454;DHT22;5783;55.174;61.310;2023-04-03T15:55:45;23.20;26.80
11454;DHT22;5783;55.174;61.310;2023-04-03T15:58:14;23.20;27.00
11454;DHT22;5783;55.174;61.310;2023-04-03T16:00:44;23.10;27.30
11454;DHT22;5783;55.174;61.310;2023-04-03T16:03:16;23.10;27.40
11454;DHT22;5783;55.174;61.310;2023-04-03T16:05:46;23.10;27.50
11454;DHT22;5783;55.174;61.310;2023-04-03T16:08:16;23.10;27.60
11454;DHT22;5783;55.174;61.310;2023-04-03T16:10:46;23.10;27.70
11454;DHT22;5783;55.174;61.310;2023-04-03T16:13:15;23.00;27.80
11454;DHT22;5783;55.174;61.310;2023-04-03T16:15:44;23.00;28.00
11454;DHT22;5783;55.174;61.310;2023-04-03T16:18:15;22.90;28.00
11454;DHT22;5783;55.174;61.310;2023-04-03T16:20:45;22.90;28.10
11454;DHT22;5783;55.174;61.310;2023-04-03T16:23:15;22.90;28.10
11454;DHT22;5783;55.174;61.310;2023-04-03T16:25:44;22.80;28.20
11454;DHT22;5783;55.174;61.310;2023-04-03T16:28:14;22.90;28.20
11454;DHT22;5783;55.174;61.310;2023-04-03T16:30:45;22.80;28.20
11454;DHT22;5783;55.174;61.310;2023-04-03T16:33:16;22.90;28.30
11454;DHT22;5783;55.174;61.310;2023-04-03T16:35:48;22.80;28.20
11454;DHT22;5783;55.174;61.310;2023-04-03T16:38:19;22.80;28.30
11454;DHT22;5783;55.174;61.310;2023-04-03T16:40:49;22.80;28.30
11454;DHT22;5783;55.174;61.310;2023-04-03T16:43:19;22.80;28.40
11454;DHT22;5783;55.174;61.310;2023-04-03T16:45:48;22.80;28.40
11454;DHT22;5783;55.174;61.310;2023-04-03T16:48:17;22.80;28.40
11454;DHT22;5783;55.174;61.310;2023-04-03T16:50:47;22.80;28.70
11454;DHT22;5783;55.174;61.310;2023-04-03T16:53:20;22.70;28.50
11454;DHT22;5783;55.174;61.310;2023-04-03T16:55:49;22.70;28.50
11454;DHT22;5783;55.174;61.310;2023-04-03T16:58:19;22.70;28.60
11454;DHT22;5783;55.174;61.310;2023-04-03T17:00:48;22.70;28.60
11454;DHT22;5783;55.174;61.310;2023-04-03T17:03:17;22.70;28.90
11454;DHT22;5783;55.174;61.310;2023-04-03T17:06:06;22.70;28.80
11454;DHT22;5783;55.174;61.310;2023-04-03T17:08:36;22.70;28.80
11454;DHT22;5783;55.174;61.310;2023-04-03T17:11:06;22.60;28.90
11454;DHT22;5783;55.174;61.310;2023-04-03T17:13:35;22.60;29.10
11454;DHT22;5783;55.174;61.310;2023-04-03T17:16:07;22.60;29.20
11454;DHT22;5783;55.174;61.310;2023-04-03T17:18:36;22.60;29.30
11454;DHT22;5783;55.174;61.310;2023-04-03T17:23:42;22.50;29.30
11454;DHT22;5783;55.174;61.310;2023-04-03T17:26:13;22.50;29.40
11454;DHT22;5783;55.174;61.310;2023-04-03T17:28:42;22.50;29.40
11454;DHT22;5783;55.174;61.310;2023-04-03T17:31:11;22.50;29.50
11454;DHT22;5783;55.174;61.310;2023-04-03T17:33:41;22.50;29.40
11454;DHT22;5783;55.174;61.310;2023-04-03T17:36:11;22.50;29.40
11454;DHT22;5783;55.174;61.310;2023-04-03T17:38:40;22.60;29.40
11454;DHT22;5783;55.174;61.310;2023-04-03T17:41:32;22.50;29.40
11454;DHT22;5783;55.174;61.310;2023-04-03T17:44:02;22.50;29.40
11454;DHT22;5783;55.174;61.310;2023-04-03T17:46:31;22.50;29.40
11454;DHT22;5783;55.174;61.310;2023-04-03T17:49:00;22.50;29.40
11454;DHT22;5783;55.174;61.310;2023-04-03T17:51:31;22.50;29.40
11454;DHT22;5783;55.174;61.310;2023-04-03T17:54:01;22.40;29.40
11454;DHT22;5783;55.174;61.310;2023-04-03T17:56:30;22.40;29.40
11454;DHT22;5783;55.174;61.310;2023-04-03T17:58:59;22.40;29.60
11454;DHT22;5783;55.174;61.310;2023-04-03T18:01:30;22.40;29.30
11454;DHT22;5783;55.174;61.310;2023-04-03T18:04:02;22.40;29.30
11454;DHT22;5783;55.174;61.310;2023-04-03T18:06:52;22.40;29.60
11454;DHT22;5783;55.174;61.310;2023-04-03T18:12:12;22.30;29.60
11454;DHT22;5783;55.174;61.310;2023-04-03T18:14:41;22.30;29.70
11454;DHT22;5783;55.174;61.310;2023-04-03T18:17:11;22.30;29.70
11454;DHT22;5783;55.174;61.310;2023-04-03T18:19:41;22.30;29.80
11454;DHT22;5783;55.174;61.310;2023-04-03T18:22:29;22.30;29.80
11454;DHT22;5783;55.174;61.310;2023-04-03T18:24:58;22.30;29.90
11454;DHT22;5783;55.174;61.310;2023-04-03T18:27:28;22.30;30.00
11454;DHT22;5783;55.174;61.310;2023-04-03T18:29:59;22.20;29.90
11454;DHT22;5783;55.174;61.310;2023-04-03T18:32:31;22.20;30.00
11454;DHT22;5783;55.174;61.310;2023-04-03T18:35:00;22.20;30.00
11454;DHT22;5783;55.174;61.310;2023-04-03T18:37:30;22.30;30.00
11454;DHT22;5783;55.174;61.310;2023-04-03T18:39:59;22.30;30.00
11454;DHT22;5783;55.174;61.310;2023-04-03T18:42:28;22.30;30.00
11454;DHT22;5783;55.174;61.310;2023-04-03T18:44:59;22.30;30.00
11454;DHT22;5783;55.174;61.310;2023-04-03T18:47:31;22.30;30.10
11454;DHT22;5783;55.174;61.310;2023-04-03T18:50:04;22.30;30.00
11454;DHT22;5783;55.174;61.310;2023-04-03T18:52:33;22.30;30.00
11454;DHT22;5783;55.174;61.310;2023-04-03T18:55:02;22.40;30.00
11454;DHT22;5783;55.174;61.310;2023-04-03T18:57:32;22.40;30.00
11454;DHT22;5783;55.174;61.310;2023-04-03T19:00:01;22.40;30.00
11454;DHT22;5783;55.174;61.310;2023-04-03T19:02:31;22.40;30.00
11454;DHT22;5783;55.174;61.310;2023-04-03T19:05:20;22.40;30.00
11454;DHT22;5783;55.174;61.310;2023-04-03T19:07:53;22.40;30.00
11454;DHT22;5783;55.174;61.310;2023-04-03T19:10:22;22.40;30.00
11454;DHT22;5783;55.174;61.310;2023-04-03T19:12:52;22.40;30.00